首页
METAR-TAF:

METAR-TAF

机场 :

Rosecrans Memorial Airport

Saint Joseph, 密蘇里州, 美国

纬度: 39-46-05N, 经度: 094-54-33W, 海拔: 251米

当前天气观测

该预报发布于50分钟前的18:53 UTC
风速12节,风向西北,有时为21节阵风
温度 17°C
湿度 45%
气压 1016 hPa
能見度: 16.1公里
天空无云

METAR: KSTJ 151853Z 32012G21KT 10SM CLR 17/05 A2999 RMK AO2 PK WND 35026/1807 SLP153 T01720050

时间: 14:43 (19:43 UTC)

预报

该预报发布于2小时和17分钟前的17:26 UTC
预报有效从15日的 18点(UTC)到 16日的 18点(UTC)
风速15节,风向北转西北
能見度: 10公里
散云层高于15000英尺
从 16日的 0100点(UTC)
风速10节,风向北转西北
能見度: 10公里
散云层高于3500英尺

TAF: KSTJ 151726Z 1518/1618 34015KT P6SM SCT150 FM160100 33010KT P6SM SCT035

超过4000个机场的气象观测和天气预报(METAR&TAF报告)。

可查询的气象台以黄色和红色小点在地图上表示。

将鼠标移到小点上方,可查看气象台名称。

然后点击查看天气观测和预报。

如需切换地图:点击带黑十字的绿色按钮放大地图;点击带横线的绿色按钮缩小地图;或者点击绿色箭头查看邻近地区的地图。


METAR-TAF: